createdAt,value
2018-09-20T00:02:00.670Z,5.53
2018-09-20T00:04:29.614Z,5.00
2018-09-20T00:06:58.548Z,4.85
2018-09-20T00:09:27.550Z,5.00
2018-09-20T00:11:56.487Z,4.60
2018-09-20T00:14:25.407Z,4.50
2018-09-20T00:16:54.361Z,4.45
2018-09-20T00:19:23.302Z,4.28
2018-09-20T00:21:52.274Z,4.78
2018-09-20T00:24:21.158Z,4.37
2018-09-20T00:26:50.112Z,4.40
2018-09-20T00:29:19.140Z,4.17
2018-09-20T00:31:48.172Z,4.20
2018-09-20T00:34:17.092Z,4.60
2018-09-20T00:36:46.074Z,4.80
2018-09-20T00:39:15.250Z,4.28
2018-09-20T00:41:44.318Z,4.17
2018-09-20T00:44:13.341Z,4.80
2018-09-20T00:46:42.292Z,4.10
2018-09-20T00:49:11.196Z,3.92
2018-09-20T00:51:40.136Z,4.40
2018-09-20T00:54:09.117Z,4.90
2018-09-20T00:56:38.148Z,4.70
2018-09-20T00:59:07.422Z,4.60
2018-09-20T01:01:36.338Z,4.70
2018-09-20T01:04:05.694Z,4.65
2018-09-20T01:06:34.609Z,4.67
2018-09-20T01:09:04.883Z,4.47
2018-09-20T01:11:33.784Z,4.87
2018-09-20T01:14:02.766Z,5.05
2018-09-20T01:16:31.694Z,5.15
2018-09-20T01:19:00.880Z,5.17
2018-09-20T01:21:29.806Z,4.65
2018-09-20T01:23:58.729Z,4.30
2018-09-20T01:26:27.855Z,5.20
2018-09-20T01:28:56.835Z,4.50
2018-09-20T01:31:25.767Z,4.85
2018-09-20T01:33:54.699Z,4.42
2018-09-20T01:36:23.642Z,4.83
2018-09-20T01:38:52.967Z,4.70
2018-09-20T01:41:21.879Z,4.80
2018-09-20T01:43:50.781Z,5.22
2018-09-20T01:46:19.711Z,4.92
2018-09-20T01:48:48.658Z,4.92
2018-09-20T01:51:17.595Z,4.95
2018-09-20T01:53:46.517Z,4.90
2018-09-20T01:56:16.247Z,5.10
2018-09-20T01:58:47.175Z,5.05
2018-09-20T02:01:16.104Z,5.30
2018-09-20T02:03:45.242Z,4.90
2018-09-20T02:06:14.875Z,5.12
2018-09-20T02:08:43.843Z,5.05
2018-09-20T02:11:12.813Z,5.35
2018-09-20T02:13:42.095Z,4.90
2018-09-20T02:16:11.795Z,5.00
2018-09-20T02:18:40.772Z,4.90
2018-09-20T02:21:09.903Z,5.12
2018-09-20T02:23:38.817Z,5.10
2018-09-20T02:26:07.741Z,4.70
2018-09-20T02:28:36.692Z,5.50
2018-09-20T02:31:05.726Z,5.08
2018-09-20T02:33:34.644Z,5.85
2018-09-20T02:36:03.564Z,5.20
2018-09-20T02:38:32.610Z,5.25
2018-09-20T02:41:01.554Z,4.92
2018-09-20T02:43:30.496Z,5.05
2018-09-20T02:45:59.752Z,5.53
2018-09-20T02:48:29.463Z,5.08
2018-09-20T02:50:58.574Z,4.97
2018-09-20T02:53:27.488Z,4.97
2018-09-20T02:55:56.607Z,6.30
2018-09-20T02:58:25.549Z,5.90
2018-09-20T03:00:54.520Z,4.95
2018-09-20T03:03:23.837Z,4.78
2018-09-20T03:05:52.886Z,5.28
2018-09-20T03:08:21.815Z,5.70
2018-09-20T03:10:50.742Z,5.65
2018-09-20T03:13:19.728Z,5.58
2018-09-20T03:15:48.681Z,5.22
2018-09-20T03:18:17.739Z,5.47
2018-09-20T03:20:46.620Z,5.55
2018-09-20T03:23:15.556Z,6.03
2018-09-20T03:25:44.480Z,4.75
2018-09-20T03:28:13.451Z,5.00
2018-09-20T03:30:42.858Z,6.28
2018-09-20T03:33:12.034Z,5.45
2018-09-20T03:35:41.274Z,5.47
2018-09-20T03:38:10.207Z,6.60
2018-09-20T03:40:39.133Z,6.22
2018-09-20T03:43:08.045Z,6.15
2018-09-20T03:45:36.985Z,5.85
2018-09-20T03:48:06.121Z,5.83
2018-09-20T03:50:35.078Z,5.90
2018-09-20T03:53:04.085Z,5.72
2018-09-20T03:55:33.157Z,6.22
2018-09-20T03:58:02.073Z,6.28
2018-09-20T04:00:31.038Z,7.25
2018-09-20T04:02:59.968Z,7.60
2018-09-20T04:05:29.295Z,6.97
2018-09-20T04:07:58.257Z,7.03
2018-09-20T04:10:27.195Z,5.95
2018-09-20T04:12:56.197Z,6.80
2018-09-20T04:15:25.349Z,6.00
2018-09-20T04:17:54.263Z,8.18
2018-09-20T04:20:23.335Z,6.85
2018-09-20T04:22:52.276Z,6.40
2018-09-20T04:25:21.583Z,6.28
2018-09-20T04:27:50.594Z,6.53
2018-09-20T04:30:19.561Z,6.78
2018-09-20T04:32:48.690Z,6.97
2018-09-20T04:35:17.652Z,6.28
2018-09-20T04:37:46.592Z,7.50
2018-09-20T04:40:15.532Z,6.78
2018-09-20T04:42:44.553Z,6.62
2018-09-20T04:45:13.654Z,7.03
2018-09-20T04:47:42.678Z,6.72
2018-09-20T04:50:11.758Z,7.50
2018-09-20T04:52:40.718Z,8.50
2018-09-20T04:55:10.107Z,8.25
2018-09-20T04:57:39.047Z,8.35
2018-09-20T05:00:08.040Z,7.28
2018-09-20T05:02:37.087Z,7.20
2018-09-20T05:05:06.062Z,8.08
2018-09-20T05:07:35.006Z,8.23
2018-09-20T05:10:04.061Z,7.78
2018-09-20T05:12:33.005Z,7.97
2018-09-20T05:15:01.967Z,9.33
2018-09-20T05:17:30.977Z,8.00
2018-09-20T05:20:00.135Z,7.55
2018-09-20T05:22:29.413Z,7.20
2018-09-20T05:24:58.361Z,7.15
2018-09-20T05:27:27.351Z,7.72
2018-09-20T05:29:56.313Z,7.47
2018-09-20T05:32:25.449Z,6.85
2018-09-20T05:34:54.351Z,7.53
2018-09-20T05:37:23.414Z,6.85
2018-09-20T05:39:52.389Z,7.10
2018-09-20T05:42:21.457Z,6.75
2018-09-20T05:44:50.472Z,7.25
2018-09-20T05:47:19.443Z,7.67
2018-09-20T05:49:48.561Z,9.05
2018-09-20T05:52:17.491Z,8.13
2018-09-20T05:54:46.487Z,9.80
2018-09-20T05:57:15.393Z,8.15
2018-09-20T05:59:44.371Z,8.55
2018-09-20T06:02:13.374Z,8.30
2018-09-20T06:04:42.459Z,8.53
2018-09-20T06:07:11.414Z,9.08
2018-09-20T06:09:40.573Z,8.35
2018-09-20T06:12:09.522Z,9.10
2018-09-20T06:14:38.564Z,8.95
2018-09-20T06:17:07.524Z,9.23
2018-09-20T06:19:36.807Z,8.65
2018-09-20T06:22:06.209Z,8.40
2018-09-20T06:24:35.270Z,8.45
2018-09-20T06:27:04.757Z,8.00
2018-09-20T06:29:33.888Z,7.85
2018-09-20T06:32:03.054Z,7.65
2018-09-20T06:34:32.127Z,7.58
2018-09-20T06:37:01.143Z,7.33
2018-09-20T06:39:30.306Z,7.55
2018-09-20T06:41:59.564Z,7.20
2018-09-20T06:44:28.452Z,6.78
2018-09-20T06:46:57.351Z,7.35
2018-09-20T06:49:26.285Z,7.33
2018-09-20T06:51:55.426Z,6.55
2018-09-20T06:54:24.409Z,7.25
2018-09-20T06:56:53.329Z,6.75
2018-09-20T06:59:22.468Z,7.60
2018-09-20T07:01:51.478Z,6.95
2018-09-20T07:04:20.554Z,7.10
2018-09-20T07:06:49.753Z,7.53
2018-09-20T07:09:18.797Z,6.97
2018-09-20T07:11:47.787Z,6.83
2018-09-20T07:14:16.749Z,6.40
2018-09-20T07:16:45.810Z,6.65
2018-09-20T07:19:14.766Z,6.62
2018-09-20T07:21:44.037Z,7.22
2018-09-20T07:24:12.988Z,6.90
2018-09-20T07:26:41.965Z,6.75
2018-09-20T07:29:10.985Z,6.53
2018-09-20T07:31:39.929Z,6.75
2018-09-20T07:34:08.847Z,6.03
2018-09-20T07:36:37.837Z,6.20
2018-09-20T07:39:09.158Z,6.87
2018-09-20T07:41:38.749Z,6.28
2018-09-20T07:44:08.431Z,6.53
2018-09-20T07:46:37.116Z,6.00
2018-09-20T07:49:05.961Z,5.50
2018-09-20T07:51:34.577Z,5.90
2018-09-20T07:54:03.951Z,6.42
2018-09-20T07:56:33.347Z,6.30
2018-09-20T07:59:02.919Z,6.42
2018-09-20T08:01:31.940Z,7.33
2018-09-20T08:04:01.151Z,6.15
2018-09-20T08:06:29.861Z,6.30
2018-09-20T08:08:58.649Z,6.33
2018-09-20T08:11:27.291Z,5.97
2018-09-20T08:13:56.013Z,6.20
2018-09-20T08:16:24.947Z,6.63
2018-09-20T08:18:53.705Z,6.33
2018-09-20T08:21:22.425Z,6.20
2018-09-20T08:23:51.303Z,6.27
2018-09-20T08:26:20.282Z,6.60
2018-09-20T08:28:49.446Z,6.30
2018-09-20T08:31:18.273Z,6.37
2018-09-20T08:33:46.982Z,6.10
2018-09-20T08:36:15.669Z,6.67
2018-09-20T08:38:44.330Z,6.50
2018-09-20T08:41:13.068Z,6.10
2018-09-20T08:43:41.713Z,5.57
2018-09-20T08:46:10.364Z,6.17
2018-09-20T08:48:39.030Z,6.07
2018-09-20T08:51:07.710Z,7.00
2018-09-20T08:53:36.608Z,6.77
2018-09-20T08:56:05.552Z,5.47
2018-09-20T08:58:34.367Z,5.03
2018-09-20T09:01:04.238Z,5.00
2018-09-20T09:03:33.298Z,5.53
2018-09-20T09:06:02.316Z,5.07
2018-09-20T09:08:31.122Z,5.33
2018-09-20T09:10:59.796Z,4.83
2018-09-20T09:13:28.506Z,5.30
2018-09-20T09:15:57.208Z,4.77
2018-09-20T09:18:25.972Z,5.63
2018-09-20T09:20:54.646Z,4.80
2018-09-20T09:23:23.432Z,5.10
2018-09-20T09:25:52.108Z,5.03
2018-09-20T09:28:20.737Z,5.37
2018-09-20T09:30:49.502Z,5.20
2018-09-20T09:33:18.244Z,5.17
2018-09-20T09:35:47.029Z,5.87
2018-09-20T09:38:15.818Z,5.30
2018-09-20T09:40:44.607Z,5.20
2018-09-20T09:43:13.230Z,4.83
2018-09-20T09:45:41.903Z,5.30
2018-09-20T09:48:10.625Z,5.20
2018-09-20T09:50:39.659Z,4.77
2018-09-20T09:53:08.355Z,5.40
2018-09-20T09:55:37.365Z,5.03
2018-09-20T09:58:06.437Z,5.33
2018-09-20T10:00:36.989Z,5.67
2018-09-20T10:03:06.015Z,5.27
2018-09-20T10:05:34.639Z,4.90
2018-09-20T10:08:03.633Z,5.40
2018-09-20T10:10:32.419Z,5.10
2018-09-20T10:13:01.021Z,4.93
2018-09-20T10:15:29.731Z,4.80
2018-09-20T10:17:58.581Z,5.30
2018-09-20T10:20:27.223Z,4.73
2018-09-20T10:22:55.873Z,4.50
2018-09-20T10:25:24.642Z,5.50
2018-09-20T10:27:53.282Z,4.77
2018-09-20T10:30:21.973Z,4.77
2018-09-20T10:32:50.650Z,5.20
2018-09-20T10:35:19.338Z,4.90
2018-09-20T10:37:48.006Z,4.87
2018-09-20T10:40:16.758Z,4.93
2018-09-20T10:42:45.578Z,4.97
2018-09-20T10:45:14.222Z,4.87
2018-09-20T10:47:42.882Z,4.70
2018-09-20T10:50:11.598Z,4.60
2018-09-20T10:52:40.446Z,4.80
2018-09-20T10:55:09.176Z,5.00
2018-09-20T10:57:37.886Z,4.57
2018-09-20T11:00:06.970Z,4.60
2018-09-20T11:02:35.607Z,5.10
2018-09-20T11:05:04.381Z,4.70
2018-09-20T11:07:33.587Z,4.90
2018-09-20T11:10:02.362Z,4.93
2018-09-20T11:12:31.001Z,4.63
2018-09-20T11:14:59.652Z,4.90
2018-09-20T11:17:28.518Z,4.50
2018-09-20T11:19:57.196Z,4.90
2018-09-20T11:22:25.833Z,5.10
2018-09-20T11:24:54.529Z,5.03
2018-09-20T11:27:23.182Z,4.80
2018-09-20T11:29:51.831Z,5.13
2018-09-20T11:32:20.561Z,5.30
2018-09-20T11:34:49.393Z,4.80
2018-09-20T11:37:18.171Z,4.60
2018-09-20T11:39:46.962Z,4.47
2018-09-20T11:42:15.638Z,4.80
2018-09-20T11:44:44.357Z,5.47
2018-09-20T11:47:13.503Z,5.23
2018-09-20T11:49:42.137Z,5.00
2018-09-20T11:52:10.793Z,4.90
2018-09-20T11:54:39.429Z,4.80
2018-09-20T11:57:08.160Z,5.10
2018-09-20T11:59:36.874Z,4.90
2018-09-20T12:02:05.752Z,4.97
2018-09-20T12:04:34.485Z,4.80
2018-09-20T12:07:03.174Z,5.20
2018-09-20T12:09:32.035Z,4.97
2018-09-20T12:12:00.738Z,5.47
2018-09-20T12:14:29.466Z,5.57
2018-09-20T12:16:58.279Z,5.00
2018-09-20T12:19:26.940Z,5.53
2018-09-20T12:21:55.588Z,5.00
2018-09-20T12:24:24.238Z,5.10
2018-09-20T12:26:52.894Z,5.20
2018-09-20T12:29:21.530Z,5.60
2018-09-20T12:31:50.199Z,4.80
2018-09-20T12:34:19.069Z,4.83
2018-09-20T12:36:47.764Z,5.07
2018-09-20T12:39:16.589Z,5.40
2018-09-20T12:41:45.272Z,4.90
2018-09-20T12:44:14.036Z,5.07
2018-09-20T12:46:42.836Z,5.30
2018-09-20T12:49:11.625Z,5.00
2018-09-20T12:51:40.377Z,5.20
2018-09-20T12:54:09.044Z,5.00
2018-09-20T12:56:38.158Z,5.20
2018-09-20T12:59:06.870Z,5.20
2018-09-20T13:01:35.546Z,4.87
2018-09-20T13:04:04.318Z,6.53
2018-09-20T13:06:32.928Z,5.40
2018-09-20T13:09:01.571Z,5.27
2018-09-20T13:11:30.274Z,5.10
2018-09-20T13:13:59.058Z,5.10
2018-09-20T13:16:27.698Z,5.00
2018-09-20T13:18:56.369Z,5.13
2018-09-20T13:21:25.008Z,5.30
2018-09-20T13:23:53.665Z,4.63
2018-09-20T13:26:22.327Z,4.80
2018-09-20T13:28:51.015Z,4.63
2018-09-20T13:31:19.656Z,4.77
2018-09-20T13:33:48.375Z,5.47
2018-09-20T13:36:17.168Z,4.83
2018-09-20T13:38:46.163Z,4.50
2018-09-20T13:41:14.929Z,4.73
2018-09-20T13:43:43.681Z,4.80
2018-09-20T13:46:12.613Z,4.87
2018-09-20T13:48:41.418Z,4.77
2018-09-20T13:51:10.171Z,4.47
2018-09-20T13:53:38.820Z,4.63
2018-09-20T13:56:08.006Z,4.57
2018-09-20T13:58:37.210Z,4.70
2018-09-20T14:01:06.067Z,4.20
2018-09-20T14:03:34.747Z,4.57
2018-09-20T14:06:03.621Z,4.07
2018-09-20T14:08:32.404Z,5.13
2018-09-20T14:11:01.113Z,4.30
2018-09-20T14:13:29.914Z,4.43
2018-09-20T14:15:58.646Z,4.20
2018-09-20T14:18:27.326Z,3.93
2018-09-20T14:20:56.058Z,4.03
2018-09-20T14:23:24.872Z,3.93
2018-09-20T14:25:53.536Z,4.53
2018-09-20T14:28:22.258Z,4.30
2018-09-20T14:30:51.120Z,4.10
2018-09-20T14:33:19.802Z,4.20
2018-09-20T14:35:48.566Z,4.27
2018-09-20T14:38:17.352Z,4.00
2018-09-20T14:40:46.141Z,4.60
2018-09-20T14:43:14.812Z,4.37
2018-09-20T14:45:43.507Z,4.40
2018-09-20T14:48:12.127Z,3.80
2018-09-20T14:50:40.771Z,4.07
2018-09-20T14:53:09.537Z,4.20
2018-09-20T14:55:38.315Z,4.13
2018-09-20T14:58:07.009Z,3.73
2018-09-20T15:00:35.657Z,3.90
2018-09-20T15:03:04.377Z,3.90
2018-09-20T15:05:33.098Z,4.13
2018-09-20T15:08:01.853Z,4.10
2018-09-20T15:10:30.676Z,4.23
2018-09-20T15:12:59.398Z,4.27
2018-09-20T15:15:28.039Z,4.10
2018-09-20T15:17:56.848Z,4.27
2018-09-20T15:20:25.469Z,3.90
2018-09-20T15:22:54.102Z,4.07
2018-09-20T15:25:22.893Z,4.07
2018-09-20T15:27:51.535Z,4.20
2018-09-20T15:30:20.395Z,3.97
2018-09-20T15:32:49.289Z,3.97
2018-09-20T15:35:18.355Z,4.20
2018-09-20T15:37:47.110Z,4.40
2018-09-20T15:40:16.068Z,4.13
2018-09-20T15:42:44.751Z,4.03
2018-09-20T15:45:13.564Z,4.20
2018-09-20T15:47:42.243Z,4.10
2018-09-20T15:50:11.034Z,4.20
2018-09-20T15:52:39.803Z,4.37
2018-09-20T15:55:08.862Z,4.27
2018-09-20T15:57:37.511Z,4.43
2018-09-20T16:00:07.072Z,4.60
2018-09-20T16:02:35.739Z,4.10
2018-09-20T16:05:04.612Z,4.30
2018-09-20T16:08:06.642Z,4.50
2018-09-20T16:10:36.268Z,4.63
2018-09-20T16:13:05.255Z,4.73
2018-09-20T16:15:33.992Z,4.40
2018-09-20T16:18:02.649Z,4.40
2018-09-20T16:20:31.406Z,4.50
2018-09-20T16:23:00.144Z,4.63
2018-09-20T16:25:28.844Z,4.83
2018-09-20T16:28:16.172Z,5.00
2018-09-20T16:33:03.358Z,4.80
2018-09-20T16:36:01.152Z,4.27
2018-09-20T16:39:08.091Z,4.70
2018-09-20T16:41:43.200Z,4.43
2018-09-20T16:44:11.901Z,4.40
2018-09-20T16:46:40.654Z,4.90
2018-09-20T16:49:09.301Z,4.93
2018-09-20T16:51:38.014Z,5.17
2018-09-20T16:54:06.694Z,5.03
2018-09-20T16:56:35.318Z,5.37
2018-09-20T16:59:04.593Z,5.20
2018-09-20T17:01:33.438Z,5.27
2018-09-20T17:04:02.306Z,4.87
2018-09-20T17:06:31.317Z,5.03
2018-09-20T17:08:59.938Z,5.60
2018-09-20T17:11:28.641Z,5.23
2018-09-20T17:13:57.344Z,8.20
2018-09-20T17:16:26.043Z,6.30
2018-09-20T17:18:55.453Z,5.43
2018-09-20T17:21:24.117Z,6.40
2018-09-20T17:23:52.760Z,6.70
2018-09-20T17:26:21.408Z,6.87
2018-09-20T17:28:50.065Z,9.60
2018-09-20T17:31:19.119Z,9.07
2018-09-20T17:33:48.133Z,8.87
2018-09-20T17:36:18.427Z,10.57
2018-09-20T17:38:48.927Z,9.77
2018-09-20T17:41:22.517Z,10.30
2018-09-20T17:44:07.967Z,9.53
2018-09-20T17:46:36.765Z,8.73
2018-09-20T17:49:05.843Z,9.27
2018-09-20T17:51:35.234Z,8.57
2018-09-20T17:54:04.393Z,8.60
2018-09-20T17:56:33.998Z,8.50
2018-09-20T17:59:03.030Z,8.57
2018-09-20T18:01:32.126Z,10.13
2018-09-20T18:04:01.436Z,7.90
2018-09-20T18:06:30.085Z,7.40
2018-09-20T18:08:58.786Z,7.40
2018-09-20T18:11:27.460Z,8.50
2018-09-20T18:13:56.139Z,7.60
2018-09-20T18:16:24.816Z,7.83
2018-09-20T18:18:53.579Z,7.40
2018-09-20T18:21:22.260Z,7.23
2018-09-20T18:23:50.910Z,7.63
2018-09-20T18:26:20.034Z,7.80
2018-09-20T18:28:48.752Z,8.27
2018-09-20T18:31:17.715Z,7.92
2018-09-20T18:33:46.662Z,9.55
2018-09-20T18:36:15.705Z,7.80
2018-09-20T18:38:45.238Z,7.08
2018-09-20T18:41:14.196Z,7.20
2018-09-20T18:43:43.150Z,8.15
2018-09-20T18:46:12.243Z,7.70
2018-09-20T18:48:41.478Z,7.67
2018-09-20T18:51:10.277Z,6.93
2018-09-20T18:53:39.411Z,8.20
2018-09-20T18:56:08.353Z,8.15
2018-09-20T18:58:37.314Z,8.23
2018-09-20T19:01:06.447Z,8.70
2018-09-20T19:03:35.591Z,8.85
2018-09-20T19:06:05.082Z,8.35
2018-09-20T19:08:34.074Z,7.97
2018-09-20T19:11:03.058Z,9.35
2018-09-20T19:13:32.010Z,7.87
2018-09-20T19:16:00.999Z,8.38
2018-09-20T19:18:29.982Z,8.03
2018-09-20T19:20:58.972Z,7.85
2018-09-20T19:23:27.925Z,8.73
2018-09-20T19:25:56.863Z,7.92
2018-09-20T19:28:26.191Z,8.48
2018-09-20T19:30:56.099Z,8.78
2018-09-20T19:33:25.227Z,8.28
2018-09-20T19:35:54.206Z,8.98
2018-09-20T19:38:23.192Z,7.95
2018-09-20T19:40:52.145Z,8.78
2018-09-20T19:43:21.108Z,7.97
2018-09-20T19:45:50.122Z,8.18
2018-09-20T19:48:19.068Z,8.43
2018-09-20T19:50:48.403Z,8.70
2018-09-20T19:53:17.379Z,8.08
2018-09-20T19:55:46.454Z,7.92
2018-09-20T19:58:15.433Z,8.40
2018-09-20T20:00:44.405Z,8.65
2018-09-20T20:03:13.353Z,8.48
2018-09-20T20:05:42.614Z,8.83
2018-09-20T20:08:12.032Z,8.05
2018-09-20T20:10:41.029Z,9.33
2018-09-20T20:13:09.981Z,9.03
2018-09-20T20:15:38.951Z,8.90
2018-09-20T20:18:07.906Z,8.98
2018-09-20T20:20:36.840Z,9.35
2018-09-20T20:23:05.978Z,10.00
2018-09-20T20:25:35.002Z,9.55
2018-09-20T20:28:04.270Z,9.15
2018-09-20T20:30:33.205Z,8.35
2018-09-20T20:33:02.167Z,8.98
2018-09-20T20:35:31.114Z,9.10
2018-09-20T20:38:00.082Z,8.60
2018-09-20T20:40:29.133Z,9.28
2018-09-20T20:42:58.063Z,8.88
2018-09-20T20:45:27.059Z,9.25
2018-09-20T20:47:56.022Z,9.18
2018-09-20T20:50:25.148Z,8.65
2018-09-20T20:52:54.122Z,8.30
2018-09-20T20:55:23.186Z,9.23
2018-09-20T20:57:52.194Z,8.13
2018-09-20T21:00:21.259Z,8.43
2018-09-20T21:02:50.224Z,8.75
2018-09-20T21:05:19.172Z,8.73
2018-09-20T21:07:48.251Z,8.53
2018-09-20T21:10:17.251Z,8.53
2018-09-20T21:12:46.305Z,8.25
2018-09-20T21:15:15.255Z,7.97
2018-09-20T21:17:44.574Z,8.78
2018-09-20T21:20:13.539Z,9.00
2018-09-20T21:22:42.475Z,7.80
2018-09-20T21:25:11.452Z,7.42
2018-09-20T21:27:40.438Z,7.47
2018-09-20T21:30:09.936Z,7.42
2018-09-20T21:32:38.925Z,7.10
2018-09-20T21:35:07.899Z,7.53
2018-09-20T21:37:36.890Z,7.08
2018-09-20T21:40:05.969Z,7.67
2018-09-20T21:42:34.940Z,7.42
2018-09-20T21:45:03.920Z,7.45
2018-09-20T21:47:32.862Z,7.78
2018-09-20T21:50:01.775Z,6.90
2018-09-20T21:52:30.887Z,6.85
2018-09-20T21:54:59.845Z,7.47
2018-09-20T21:57:28.803Z,7.05
2018-09-20T21:59:57.878Z,7.22
2018-09-20T22:02:32.111Z,7.10
2018-09-20T22:05:01.043Z,6.53
2018-09-20T22:07:30.013Z,6.87
2018-09-20T22:09:58.917Z,6.85
2018-09-20T22:12:27.931Z,6.40
2018-09-20T22:14:57.012Z,6.72
2018-09-20T22:17:25.962Z,6.35
2018-09-20T22:19:54.975Z,6.80
2018-09-20T22:22:23.905Z,7.80
2018-09-20T22:24:52.845Z,6.85
2018-09-20T22:27:21.849Z,6.65
2018-09-20T22:29:50.809Z,6.55
2018-09-20T22:32:19.723Z,6.70
2018-09-20T22:34:48.672Z,6.42
2018-09-20T22:37:17.663Z,6.80
2018-09-20T22:39:46.637Z,6.85
2018-09-20T22:42:15.861Z,6.97
2018-09-20T22:44:45.044Z,7.35
2018-09-20T22:47:14.190Z,7.00
2018-09-20T22:49:43.122Z,7.00
2018-09-20T22:52:12.121Z,7.03
2018-09-20T22:54:41.040Z,6.87
2018-09-20T22:57:10.004Z,7.20
2018-09-20T22:59:38.932Z,6.47
2018-09-20T23:02:07.828Z,6.58
2018-09-20T23:04:36.906Z,6.83
2018-09-20T23:07:06.129Z,7.15
2018-09-20T23:09:35.098Z,6.85
2018-09-20T23:12:04.206Z,7.10
2018-09-20T23:14:33.502Z,7.45
2018-09-20T23:17:02.863Z,6.47
2018-09-20T23:19:31.970Z,7.17
2018-09-20T23:22:00.899Z,6.50
2018-09-20T23:24:30.181Z,7.03
2018-09-20T23:26:59.270Z,7.25
2018-09-20T23:29:28.454Z,6.97
2018-09-20T23:31:57.392Z,7.53
2018-09-20T23:34:26.324Z,6.95
2018-09-20T23:36:55.240Z,7.37
2018-09-20T23:39:24.193Z,7.28
2018-09-20T23:41:53.089Z,7.08
2018-09-20T23:44:22.007Z,6.75
2018-09-20T23:46:51.072Z,8.25
2018-09-20T23:49:20.097Z,7.17
2018-09-20T23:51:49.059Z,7.83
2018-09-20T23:54:18.166Z,7.10
2018-09-20T23:56:47.098Z,6.83
2018-09-20T23:59:16.081Z,6.72
